sensor_id;sensor_type;location;lat;lon;timestamp;P1;durP1;ratioP1;P2;durP2;ratioP2
10902;SDS011;5504;47.312;11.060;2022-07-04T00:00:29;3.65;;;3.40;;
10902;SDS011;5504;47.312;11.060;2022-07-04T00:02:54;3.95;;;3.30;;
10902;SDS011;5504;47.312;11.060;2022-07-04T00:05:20;3.72;;;3.05;;
10902;SDS011;5504;47.312;11.060;2022-07-04T00:07:47;4.35;;;3.20;;
10902;SDS011;5504;47.312;11.060;2022-07-04T00:10:17;5.72;;;2.97;;
10902;SDS011;5504;47.312;11.060;2022-07-04T00:12:45;5.30;;;2.40;;
10902;SDS011;5504;47.312;11.060;2022-07-04T00:15:11;6.25;;;2.72;;
10902;SDS011;5504;47.312;11.060;2022-07-04T00:17:38;4.70;;;2.90;;
10902;SDS011;5504;47.312;11.060;2022-07-04T00:20:05;7.10;;;3.77;;
10902;SDS011;5504;47.312;11.060;2022-07-04T00:22:31;8.43;;;3.92;;
10902;SDS011;5504;47.312;11.060;2022-07-04T00:24:57;5.70;;;3.50;;
10902;SDS011;5504;47.312;11.060;2022-07-04T00:27:23;6.97;;;3.80;;
10902;SDS011;5504;47.312;11.060;2022-07-04T00:29:49;5.17;;;3.40;;
10902;SDS011;5504;47.312;11.060;2022-07-04T00:32:16;6.57;;;3.70;;
10902;SDS011;5504;47.312;11.060;2022-07-04T00:34:41;7.00;;;3.67;;
10902;SDS011;5504;47.312;11.060;2022-07-04T00:37:07;4.33;;;2.90;;
10902;SDS011;5504;47.312;11.060;2022-07-04T00:39:33;5.33;;;3.43;;
10902;SDS011;5504;47.312;11.060;2022-07-04T00:41:59;3.43;;;2.63;;
10902;SDS011;5504;47.312;11.060;2022-07-04T00:44:25;8.10;;;3.60;;
10902;SDS011;5504;47.312;11.060;2022-07-04T00:46:50;5.77;;;3.53;;
10902;SDS011;5504;47.312;11.060;2022-07-04T00:49:17;4.63;;;2.90;;
10902;SDS011;5504;47.312;11.060;2022-07-04T00:51:43;5.30;;;2.80;;
10902;SDS011;5504;47.312;11.060;2022-07-04T00:54:14;4.23;;;3.00;;
10902;SDS011;5504;47.312;11.060;2022-07-04T00:56:43;3.60;;;2.30;;
10902;SDS011;5504;47.312;11.060;2022-07-04T00:59:09;3.00;;;2.43;;
10902;SDS011;5504;47.312;11.060;2022-07-04T01:01:36;4.53;;;2.70;;
10902;SDS011;5504;47.312;11.060;2022-07-04T01:04:03;3.37;;;2.60;;
10902;SDS011;5504;47.312;11.060;2022-07-04T01:06:30;4.10;;;2.80;;
10902;SDS011;5504;47.312;11.060;2022-07-04T01:08:56;3.97;;;2.63;;
10902;SDS011;5504;47.312;11.060;2022-07-04T01:11:22;4.57;;;3.00;;
10902;SDS011;5504;47.312;11.060;2022-07-04T01:13:48;6.20;;;2.77;;
10902;SDS011;5504;47.312;11.060;2022-07-04T01:16:13;3.00;;;2.70;;
10902;SDS011;5504;47.312;11.060;2022-07-04T01:18:39;4.47;;;2.90;;
10902;SDS011;5504;47.312;11.060;2022-07-04T01:21:05;5.60;;;3.10;;
10902;SDS011;5504;47.312;11.060;2022-07-04T01:23:32;4.20;;;3.30;;
10902;SDS011;5504;47.312;11.060;2022-07-04T01:26:01;4.23;;;3.20;;
10902;SDS011;5504;47.312;11.060;2022-07-04T01:28:27;5.32;;;3.00;;
10902;SDS011;5504;47.312;11.060;2022-07-04T01:30:53;3.53;;;2.90;;
10902;SDS011;5504;47.312;11.060;2022-07-04T01:33:19;5.73;;;2.60;;
10902;SDS011;5504;47.312;11.060;2022-07-04T01:35:45;3.77;;;2.57;;
10902;SDS011;5504;47.312;11.060;2022-07-04T01:38:11;3.00;;;2.70;;
10902;SDS011;5504;47.312;11.060;2022-07-04T01:40:36;2.80;;;2.60;;
10902;SDS011;5504;47.312;11.060;2022-07-04T01:43:02;2.57;;;2.37;;
10902;SDS011;5504;47.312;11.060;2022-07-04T01:45:28;2.90;;;2.30;;
10902;SDS011;5504;47.312;11.060;2022-07-04T01:47:54;2.37;;;2.17;;
10902;SDS011;5504;47.312;11.060;2022-07-04T01:50:20;2.37;;;2.17;;
10902;SDS011;5504;47.312;11.060;2022-07-04T01:52:46;2.43;;;2.23;;
10902;SDS011;5504;47.312;11.060;2022-07-04T01:55:12;2.50;;;2.30;;
10902;SDS011;5504;47.312;11.060;2022-07-04T01:57:38;2.33;;;2.17;;
10902;SDS011;5504;47.312;11.060;2022-07-04T02:00:08;2.87;;;2.33;;
10902;SDS011;5504;47.312;11.060;2022-07-04T02:02:53;2.60;;;2.40;;
10902;SDS011;5504;47.312;11.060;2022-07-04T02:05:19;2.90;;;2.50;;
10902;SDS011;5504;47.312;11.060;2022-07-04T02:07:45;3.20;;;2.40;;
10902;SDS011;5504;47.312;11.060;2022-07-04T02:10:10;3.13;;;2.47;;
10902;SDS011;5504;47.312;11.060;2022-07-04T02:12:36;3.27;;;2.50;;
10902;SDS011;5504;47.312;11.060;2022-07-04T02:15:21;3.93;;;2.60;;
10902;SDS011;5504;47.312;11.060;2022-07-04T02:17:46;2.90;;;2.70;;
10902;SDS011;5504;47.312;11.060;2022-07-04T02:20:12;3.33;;;2.50;;
10902;SDS011;5504;47.312;11.060;2022-07-04T02:22:39;4.20;;;2.40;;
10902;SDS011;5504;47.312;11.060;2022-07-04T02:25:05;3.00;;;2.80;;
10902;SDS011;5504;47.312;11.060;2022-07-04T02:27:31;3.50;;;3.20;;
10902;SDS011;5504;47.312;11.060;2022-07-04T02:29:57;4.57;;;2.80;;
10902;SDS011;5504;47.312;11.060;2022-07-04T02:32:23;3.10;;;2.80;;
10902;SDS011;5504;47.312;11.060;2022-07-04T02:34:48;5.17;;;2.70;;
10902;SDS011;5504;47.312;11.060;2022-07-04T02:37:14;2.60;;;2.40;;
10902;SDS011;5504;47.312;11.060;2022-07-04T02:39:40;3.63;;;2.57;;
10902;SDS011;5504;47.312;11.060;2022-07-04T02:42:06;2.97;;;2.67;;
10902;SDS011;5504;47.312;11.060;2022-07-04T02:44:32;2.63;;;2.43;;
10902;SDS011;5504;47.312;11.060;2022-07-04T02:46:58;2.80;;;2.47;;
10902;SDS011;5504;47.312;11.060;2022-07-04T02:49:23;2.67;;;2.47;;
10902;SDS011;5504;47.312;11.060;2022-07-04T02:51:49;3.10;;;2.77;;
10902;SDS011;5504;47.312;11.060;2022-07-04T02:54:15;3.13;;;2.83;;
10902;SDS011;5504;47.312;11.060;2022-07-04T02:56:41;3.10;;;2.90;;
10902;SDS011;5504;47.312;11.060;2022-07-04T02:59:07;2.63;;;2.40;;
10902;SDS011;5504;47.312;11.060;2022-07-04T03:01:33;2.80;;;2.60;;
10902;SDS011;5504;47.312;11.060;2022-07-04T03:03:59;3.77;;;3.13;;
10902;SDS011;5504;47.312;11.060;2022-07-04T03:06:25;3.00;;;2.80;;
10902;SDS011;5504;47.312;11.060;2022-07-04T03:08:50;2.90;;;2.70;;
10902;SDS011;5504;47.312;11.060;2022-07-04T03:11:17;3.10;;;2.77;;
10902;SDS011;5504;47.312;11.060;2022-07-04T03:13:43;4.00;;;3.20;;
10902;SDS011;5504;47.312;11.060;2022-07-04T03:16:09;3.50;;;2.70;;
10902;SDS011;5504;47.312;11.060;2022-07-04T03:18:36;3.53;;;2.90;;
10902;SDS011;5504;47.312;11.060;2022-07-04T03:21:02;3.67;;;2.87;;
10902;SDS011;5504;47.312;11.060;2022-07-04T03:23:31;3.47;;;2.87;;
10902;SDS011;5504;47.312;11.060;2022-07-04T03:25:57;3.77;;;3.00;;
10902;SDS011;5504;47.312;11.060;2022-07-04T03:28:23;3.10;;;2.80;;
10902;SDS011;5504;47.312;11.060;2022-07-04T03:30:50;3.90;;;3.40;;
10902;SDS011;5504;47.312;11.060;2022-07-04T03:33:15;4.10;;;3.50;;
10902;SDS011;5504;47.312;11.060;2022-07-04T03:35:41;3.27;;;2.97;;
10902;SDS011;5504;47.312;11.060;2022-07-04T03:38:07;3.30;;;2.93;;
10902;SDS011;5504;47.312;11.060;2022-07-04T03:40:33;3.27;;;2.90;;
10902;SDS011;5504;47.312;11.060;2022-07-04T03:43:00;3.00;;;2.70;;
10902;SDS011;5504;47.312;11.060;2022-07-04T03:45:27;3.40;;;3.10;;
10902;SDS011;5504;47.312;11.060;2022-07-04T03:47:52;3.20;;;3.00;;
10902;SDS011;5504;47.312;11.060;2022-07-04T03:50:18;3.97;;;3.60;;
10902;SDS011;5504;47.312;11.060;2022-07-04T03:52:44;4.10;;;3.70;;
10902;SDS011;5504;47.312;11.060;2022-07-04T03:55:10;4.10;;;3.70;;
10902;SDS011;5504;47.312;11.060;2022-07-04T03:57:36;3.80;;;3.50;;
10902;SDS011;5504;47.312;11.060;2022-07-04T04:00:02;4.20;;;3.60;;
10902;SDS011;5504;47.312;11.060;2022-07-04T04:02:29;3.87;;;3.27;;
10902;SDS011;5504;47.312;11.060;2022-07-04T04:04:55;3.60;;;3.30;;
10902;SDS011;5504;47.312;11.060;2022-07-04T04:07:39;4.37;;;3.40;;
10902;SDS011;5504;47.312;11.060;2022-07-04T04:10:05;4.63;;;4.20;;
10902;SDS011;5504;47.312;11.060;2022-07-04T04:12:31;4.80;;;3.83;;
10902;SDS011;5504;47.312;11.060;2022-07-04T04:14:57;5.17;;;3.70;;
10902;SDS011;5504;47.312;11.060;2022-07-04T04:17:22;5.97;;;3.60;;
10902;SDS011;5504;47.312;11.060;2022-07-04T04:19:48;4.07;;;3.67;;
10902;SDS011;5504;47.312;11.060;2022-07-04T04:22:14;4.90;;;3.80;;
10902;SDS011;5504;47.312;11.060;2022-07-04T04:24:40;5.23;;;3.60;;
10902;SDS011;5504;47.312;11.060;2022-07-04T04:27:05;4.60;;;3.83;;
10902;SDS011;5504;47.312;11.060;2022-07-04T04:29:31;4.50;;;4.03;;
10902;SDS011;5504;47.312;11.060;2022-07-04T04:31:57;4.50;;;4.10;;
10902;SDS011;5504;47.312;11.060;2022-07-04T04:34:23;4.50;;;3.73;;
10902;SDS011;5504;47.312;11.060;2022-07-04T04:36:48;4.53;;;4.13;;
10902;SDS011;5504;47.312;11.060;2022-07-04T04:39:14;4.90;;;4.43;;
10902;SDS011;5504;47.312;11.060;2022-07-04T04:41:40;4.80;;;4.40;;
10902;SDS011;5504;47.312;11.060;2022-07-04T04:44:05;4.80;;;4.40;;
10902;SDS011;5504;47.312;11.060;2022-07-04T04:46:31;4.53;;;4.13;;
10902;SDS011;5504;47.312;11.060;2022-07-04T04:48:57;4.40;;;4.10;;
10902;SDS011;5504;47.312;11.060;2022-07-04T04:51:23;4.50;;;4.10;;
10902;SDS011;5504;47.312;11.060;2022-07-04T04:53:48;4.30;;;4.00;;
10902;SDS011;5504;47.312;11.060;2022-07-04T04:56:14;4.57;;;4.10;;
10902;SDS011;5504;47.312;11.060;2022-07-04T04:58:40;4.30;;;4.00;;
10902;SDS011;5504;47.312;11.060;2022-07-04T05:01:05;4.20;;;3.90;;
10902;SDS011;5504;47.312;11.060;2022-07-04T05:03:31;5.07;;;4.03;;
10902;SDS011;5504;47.312;11.060;2022-07-04T05:05:57;4.70;;;4.10;;
10902;SDS011;5504;47.312;11.060;2022-07-04T05:08:23;4.70;;;3.88;;
10902;SDS011;5504;47.312;11.060;2022-07-04T05:10:52;4.63;;;3.90;;
10902;SDS011;5504;47.312;11.060;2022-07-04T05:13:18;4.20;;;3.90;;
10902;SDS011;5504;47.312;11.060;2022-07-04T05:15:44;4.35;;;4.05;;
10902;SDS011;5504;47.312;11.060;2022-07-04T05:18:11;4.72;;;4.32;;
10902;SDS011;5504;47.312;11.060;2022-07-04T05:20:37;5.03;;;4.53;;
10902;SDS011;5504;47.312;11.060;2022-07-04T05:23:04;4.68;;;4.28;;
10902;SDS011;5504;47.312;11.060;2022-07-04T05:25:30;4.18;;;3.75;;
10902;SDS011;5504;47.312;11.060;2022-07-04T05:27:56;4.60;;;3.60;;
10902;SDS011;5504;47.312;11.060;2022-07-04T05:30:21;3.75;;;3.45;;
10902;SDS011;5504;47.312;11.060;2022-07-04T05:32:47;4.07;;;2.80;;
10902;SDS011;5504;47.312;11.060;2022-07-04T05:35:13;3.38;;;3.05;;
10902;SDS011;5504;47.312;11.060;2022-07-04T05:37:38;3.60;;;3.03;;
10902;SDS011;5504;47.312;11.060;2022-07-04T05:40:04;4.25;;;3.42;;
10902;SDS011;5504;47.312;11.060;2022-07-04T05:42:30;3.30;;;3.10;;
10902;SDS011;5504;47.312;11.060;2022-07-04T05:44:56;3.40;;;3.10;;
10902;SDS011;5504;47.312;11.060;2022-07-04T05:47:22;3.33;;;3.00;;
10902;SDS011;5504;47.312;11.060;2022-07-04T05:49:49;3.72;;;3.30;;
10902;SDS011;5504;47.312;11.060;2022-07-04T05:52:15;3.75;;;3.45;;
10902;SDS011;5504;47.312;11.060;2022-07-04T05:54:41;3.97;;;3.60;;
10902;SDS011;5504;47.312;11.060;2022-07-04T05:57:07;3.60;;;3.30;;
10902;SDS011;5504;47.312;11.060;2022-07-04T05:59:33;3.65;;;3.00;;
10902;SDS011;5504;47.312;11.060;2022-07-04T06:01:59;5.55;;;3.78;;
10902;SDS011;5504;47.312;11.060;2022-07-04T06:04:25;4.18;;;3.60;;
10902;SDS011;5504;47.312;11.060;2022-07-04T06:06:51;4.50;;;3.47;;
10902;SDS011;5504;47.312;11.060;2022-07-04T06:09:16;3.50;;;3.15;;
10902;SDS011;5504;47.312;11.060;2022-07-04T06:11:42;4.97;;;3.50;;
10902;SDS011;5504;47.312;11.060;2022-07-04T06:14:08;3.53;;;3.22;;
10902;SDS011;5504;47.312;11.060;2022-07-04T06:16:34;3.50;;;3.20;;
10902;SDS011;5504;47.312;11.060;2022-07-04T06:19:00;3.33;;;3.03;;
10902;SDS011;5504;47.312;11.060;2022-07-04T06:21:25;4.35;;;3.10;;
10902;SDS011;5504;47.312;11.060;2022-07-04T06:23:51;3.58;;;3.28;;
10902;SDS011;5504;47.312;11.060;2022-07-04T06:26:17;4.53;;;3.65;;
10902;SDS011;5504;47.312;11.060;2022-07-04T06:28:43;4.97;;;2.90;;
10902;SDS011;5504;47.312;11.060;2022-07-04T06:31:10;3.30;;;3.00;;
10902;SDS011;5504;47.312;11.060;2022-07-04T06:33:36;2.97;;;2.70;;
10902;SDS011;5504;47.312;11.060;2022-07-04T06:36:22;3.50;;;3.20;;
10902;SDS011;5504;47.312;11.060;2022-07-04T06:38:48;3.30;;;3.00;;
10902;SDS011;5504;47.312;11.060;2022-07-04T06:41:14;3.40;;;3.10;;
10902;SDS011;5504;47.312;11.060;2022-07-04T06:43:39;3.35;;;3.10;;
10902;SDS011;5504;47.312;11.060;2022-07-04T06:46:05;4.18;;;3.25;;
10902;SDS011;5504;47.312;11.060;2022-07-04T06:48:31;3.63;;;3.30;;
10902;SDS011;5504;47.312;11.060;2022-07-04T06:50:57;3.50;;;3.20;;
10902;SDS011;5504;47.312;11.060;2022-07-04T06:53:23;3.85;;;3.50;;
10902;SDS011;5504;47.312;11.060;2022-07-04T06:55:48;3.80;;;3.35;;
10902;SDS011;5504;47.312;11.060;2022-07-04T06:58:14;3.78;;;3.28;;
10902;SDS011;5504;47.312;11.060;2022-07-04T07:00:40;4.32;;;3.92;;
10902;SDS011;5504;47.312;11.060;2022-07-04T07:03:09;4.35;;;3.95;;
10902;SDS011;5504;47.312;11.060;2022-07-04T07:05:35;5.00;;;4.30;;
10902;SDS011;5504;47.312;11.060;2022-07-04T07:08:05;4.30;;;3.90;;
10902;SDS011;5504;47.312;11.060;2022-07-04T07:10:31;4.90;;;4.47;;
10902;SDS011;5504;47.312;11.060;2022-07-04T07:13:01;5.25;;;3.97;;
10902;SDS011;5504;47.312;11.060;2022-07-04T07:15:27;4.03;;;3.72;;
10902;SDS011;5504;47.312;11.060;2022-07-04T07:17:53;4.07;;;3.67;;
10902;SDS011;5504;47.312;11.060;2022-07-04T07:20:19;5.30;;;3.95;;
10902;SDS011;5504;47.312;11.060;2022-07-04T07:22:44;4.80;;;4.30;;
10902;SDS011;5504;47.312;11.060;2022-07-04T07:25:10;4.35;;;3.90;;
10902;SDS011;5504;47.312;11.060;2022-07-04T07:27:36;6.28;;;3.85;;
10902;SDS011;5504;47.312;11.060;2022-07-04T07:30:04;4.55;;;3.60;;
10902;SDS011;5504;47.312;11.060;2022-07-04T07:32:30;3.78;;;3.47;;
10902;SDS011;5504;47.312;11.060;2022-07-04T07:34:56;4.03;;;3.72;;
10902;SDS011;5504;47.312;11.060;2022-07-04T07:37:21;4.78;;;4.38;;
10902;SDS011;5504;47.312;11.060;2022-07-04T07:39:48;4.78;;;4.20;;
10902;SDS011;5504;47.312;11.060;2022-07-04T07:42:14;7.30;;;4.30;;
10902;SDS011;5504;47.312;11.060;2022-07-04T07:44:40;4.88;;;4.40;;
10902;SDS011;5504;47.312;11.060;2022-07-04T07:47:06;4.18;;;3.88;;
10902;SDS011;5504;47.312;11.060;2022-07-04T07:49:32;4.00;;;3.63;;
10902;SDS011;5504;47.312;11.060;2022-07-04T07:51:58;4.57;;;4.13;;
10902;SDS011;5504;47.312;11.060;2022-07-04T07:54:23;6.10;;;3.88;;
10902;SDS011;5504;47.312;11.060;2022-07-04T07:56:49;3.90;;;3.60;;
10902;SDS011;5504;47.312;11.060;2022-07-04T07:59:15;3.20;;;3.00;;
10902;SDS011;5504;47.312;11.060;2022-07-04T08:01:41;3.92;;;3.55;;
10902;SDS011;5504;47.312;11.060;2022-07-04T08:04:07;4.13;;;3.30;;
10902;SDS011;5504;47.312;11.060;2022-07-04T08:06:51;4.45;;;3.53;;
10902;SDS011;5504;47.312;11.060;2022-07-04T08:09:17;3.65;;;3.35;;
10902;SDS011;5504;47.312;11.060;2022-07-04T08:11:42;3.45;;;3.20;;
10902;SDS011;5504;47.312;11.060;2022-07-04T08:14:08;3.65;;;3.35;;
10902;SDS011;5504;47.312;11.060;2022-07-04T08:16:34;4.30;;;3.90;;
10902;SDS011;5504;47.312;11.060;2022-07-04T08:19:00;3.92;;;3.55;;
10902;SDS011;5504;47.312;11.060;2022-07-04T08:21:27;4.97;;;3.50;;
10902;SDS011;5504;47.312;11.060;2022-07-04T08:23:53;3.78;;;3.53;;
10902;SDS011;5504;47.312;11.060;2022-07-04T08:26:18;3.90;;;3.60;;
10902;SDS011;5504;47.312;11.060;2022-07-04T08:28:44;5.20;;;3.63;;
10902;SDS011;5504;47.312;11.060;2022-07-04T08:31:11;4.45;;;3.67;;
10902;SDS011;5504;47.312;11.060;2022-07-04T08:33:36;3.67;;;3.20;;
10902;SDS011;5504;47.312;11.060;2022-07-04T08:36:02;3.13;;;2.92;;
10902;SDS011;5504;47.312;11.060;2022-07-04T08:38:28;3.53;;;3.20;;
10902;SDS011;5504;47.312;11.060;2022-07-04T08:40:56;3.35;;;2.90;;
10902;SDS011;5504;47.312;11.060;2022-07-04T08:43:24;3.03;;;2.70;;
10902;SDS011;5504;47.312;11.060;2022-07-04T08:45:52;3.22;;;2.90;;
10902;SDS011;5504;47.312;11.060;2022-07-04T08:48:21;3.53;;;3.00;;
10902;SDS011;5504;47.312;11.060;2022-07-04T08:50:51;3.40;;;3.10;;
10902;SDS011;5504;47.312;11.060;2022-07-04T08:53:21;3.80;;;3.40;;
10902;SDS011;5504;47.312;11.060;2022-07-04T08:55:51;3.20;;;2.90;;
10902;SDS011;5504;47.312;11.060;2022-07-04T08:58:36;3.30;;;3.00;;
10902;SDS011;5504;47.312;11.060;2022-07-04T09:03:30;3.47;;;3.17;;
10902;SDS011;5504;47.312;11.060;2022-07-04T09:05:57;3.67;;;3.38;;
10902;SDS011;5504;47.312;11.060;2022-07-04T09:08:23;3.97;;;3.55;;
10902;SDS011;5504;47.312;11.060;2022-07-04T09:10:51;3.88;;;3.13;;
10902;SDS011;5504;47.312;11.060;2022-07-04T09:13:17;3.28;;;2.97;;
10902;SDS011;5504;47.312;11.060;2022-07-04T09:15:44;3.28;;;2.97;;
10902;SDS011;5504;47.312;11.060;2022-07-04T09:20:52;3.78;;;3.47;;
10902;SDS011;5504;47.312;11.060;2022-07-04T09:23:20;5.55;;;3.50;;
10902;SDS011;5504;47.312;11.060;2022-07-04T09:25:49;3.88;;;3.58;;
10902;SDS011;5504;47.312;11.060;2022-07-04T09:28:38;6.30;;;3.50;;
10902;SDS011;5504;47.312;11.060;2022-07-04T09:31:15;4.70;;;3.80;;
10902;SDS011;5504;47.312;11.060;2022-07-04T09:33:58;5.65;;;3.78;;
10902;SDS011;5504;47.312;11.060;2022-07-04T09:36:29;4.78;;;4.10;;
10902;SDS011;5504;47.312;11.060;2022-07-04T09:39:08;5.07;;;4.57;;
10902;SDS011;5504;47.312;11.060;2022-07-04T09:44:24;4.60;;;4.30;;
10902;SDS011;5504;47.312;11.060;2022-07-04T09:46:52;4.77;;;4.33;;
10902;SDS011;5504;47.312;11.060;2022-07-04T09:49:18;5.90;;;4.65;;
10902;SDS011;5504;47.312;11.060;2022-07-04T09:51:48;5.70;;;4.80;;
10902;SDS011;5504;47.312;11.060;2022-07-04T09:56:43;5.40;;;4.63;;
10902;SDS011;5504;47.312;11.060;2022-07-04T09:59:10;5.40;;;4.60;;
10902;SDS011;5504;47.312;11.060;2022-07-04T10:01:38;5.45;;;4.20;;
10902;SDS011;5504;47.312;11.060;2022-07-04T10:04:04;5.53;;;4.53;;
10902;SDS011;5504;47.312;11.060;2022-07-04T10:06:32;5.20;;;4.70;;
10902;SDS011;5504;47.312;11.060;2022-07-04T10:09:09;4.65;;;4.22;;
10902;SDS011;5504;47.312;11.060;2022-07-04T10:11:44;4.93;;;4.30;;
10902;SDS011;5504;47.312;11.060;2022-07-04T10:14:12;5.65;;;4.25;;
10902;SDS011;5504;47.312;11.060;2022-07-04T10:16:39;4.88;;;4.38;;
10902;SDS011;5504;47.312;11.060;2022-07-04T10:19:06;5.20;;;4.60;;
10902;SDS011;5504;47.312;11.060;2022-07-04T10:21:33;4.22;;;3.63;;
10902;SDS011;5504;47.312;11.060;2022-07-04T10:24:00;4.30;;;3.90;;
10902;SDS011;5504;47.312;11.060;2022-07-04T10:26:26;5.47;;;3.67;;
10902;SDS011;5504;47.312;11.060;2022-07-04T10:28:54;4.07;;;3.50;;
10902;SDS011;5504;47.312;11.060;2022-07-04T10:31:21;4.45;;;3.78;;
10902;SDS011;5504;47.312;11.060;2022-07-04T10:33:48;6.37;;;4.30;;
10902;SDS011;5504;47.312;11.060;2022-07-04T10:36:24;4.65;;;3.60;;
10902;SDS011;5504;47.312;11.060;2022-07-04T10:39:02;4.63;;;3.63;;
10902;SDS011;5504;47.312;11.060;2022-07-04T10:41:30;4.60;;;3.55;;
10902;SDS011;5504;47.312;11.060;2022-07-04T10:43:59;4.00;;;3.70;;
10902;SDS011;5504;47.312;11.060;2022-07-04T10:46:35;3.47;;;3.05;;
10902;SDS011;5504;47.312;11.060;2022-07-04T10:51:41;3.78;;;2.70;;
10902;SDS011;5504;47.312;11.060;2022-07-04T10:54:18;5.13;;;3.70;;
10902;SDS011;5504;47.312;11.060;2022-07-04T10:56:49;5.30;;;3.60;;
10902;SDS011;5504;47.312;11.060;2022-07-04T10:59:19;5.10;;;3.63;;
10902;SDS011;5504;47.312;11.060;2022-07-04T11:04:47;4.93;;;3.60;;
10902;SDS011;5504;47.312;11.060;2022-07-04T11:08:02;5.35;;;4.07;;
10902;SDS011;5504;47.312;11.060;2022-07-04T11:18:13;4.05;;;3.42;;
10902;SDS011;5504;47.312;11.060;2022-07-04T11:20:42;4.95;;;3.35;;
10902;SDS011;5504;47.312;11.060;2022-07-04T11:23:11;5.88;;;3.47;;
10902;SDS011;5504;47.312;11.060;2022-07-04T11:25:42;3.65;;;3.35;;
10902;SDS011;5504;47.312;11.060;2022-07-04T11:28:23;3.35;;;2.83;;
10902;SDS011;5504;47.312;11.060;2022-07-04T11:30:52;3.72;;;3.42;;
10902;SDS011;5504;47.312;11.060;2022-07-04T11:33:20;3.97;;;3.47;;
10902;SDS011;5504;47.312;11.060;2022-07-04T11:38:52;3.75;;;3.00;;
10902;SDS011;5504;47.312;11.060;2022-07-04T11:41:27;3.40;;;3.10;;
10902;SDS011;5504;47.312;11.060;2022-07-04T11:44:18;3.30;;;3.05;;
10902;SDS011;5504;47.312;11.060;2022-07-04T11:52:09;3.00;;;2.80;;
10902;SDS011;5504;47.312;11.060;2022-07-04T11:54:36;3.10;;;2.85;;
10902;SDS011;5504;47.312;11.060;2022-07-04T11:57:12;3.85;;;3.00;;
10902;SDS011;5504;47.312;11.060;2022-07-04T11:59:42;3.13;;;2.83;;
10902;SDS011;5504;47.312;11.060;2022-07-04T12:02:11;3.20;;;2.90;;
10902;SDS011;5504;47.312;11.060;2022-07-04T12:04:39;3.70;;;3.28;;
10902;SDS011;5504;47.312;11.060;2022-07-04T12:07:13;3.85;;;3.00;;
10902;SDS011;5504;47.312;11.060;2022-07-04T12:09:40;3.92;;;3.20;;
10902;SDS011;5504;47.312;11.060;2022-07-04T12:12:06;4.30;;;2.97;;
10902;SDS011;5504;47.312;11.060;2022-07-04T12:14:33;3.20;;;2.92;;
10902;SDS011;5504;47.312;11.060;2022-07-04T12:17:18;3.47;;;2.85;;
10902;SDS011;5504;47.312;11.060;2022-07-04T12:22:40;3.58;;;3.20;;
10902;SDS011;5504;47.312;11.060;2022-07-04T12:25:08;3.63;;;3.10;;
10902;SDS011;5504;47.312;11.060;2022-07-04T12:30:20;3.40;;;3.10;;
10902;SDS011;5504;47.312;11.060;2022-07-04T12:32:50;4.93;;;3.15;;
10902;SDS011;5504;47.312;11.060;2022-07-04T12:38:08;3.72;;;3.40;;
10902;SDS011;5504;47.312;11.060;2022-07-04T12:40:35;3.22;;;2.83;;
10902;SDS011;5504;47.312;11.060;2022-07-04T12:43:01;3.50;;;3.17;;
10902;SDS011;5504;47.312;11.060;2022-07-04T12:45:41;3.88;;;3.38;;
10902;SDS011;5504;47.312;11.060;2022-07-04T12:48:32;3.00;;;2.70;;
10902;SDS011;5504;47.312;11.060;2022-07-04T12:51:17;3.40;;;2.53;;
10902;SDS011;5504;47.312;11.060;2022-07-04T12:53:45;2.90;;;2.42;;
10902;SDS011;5504;47.312;11.060;2022-07-04T12:56:31;2.45;;;2.08;;
10902;SDS011;5504;47.312;11.060;2022-07-04T12:58:59;3.30;;;2.20;;
10902;SDS011;5504;47.312;11.060;2022-07-04T13:01:27;2.40;;;2.20;;
10902;SDS011;5504;47.312;11.060;2022-07-04T13:03:53;2.22;;;2.10;;
10902;SDS011;5504;47.312;11.060;2022-07-04T13:06:18;2.22;;;2.03;;
10902;SDS011;5504;47.312;11.060;2022-07-04T13:08:44;2.40;;;2.20;;
10902;SDS011;5504;47.312;11.060;2022-07-04T13:11:10;2.70;;;2.33;;
10902;SDS011;5504;47.312;11.060;2022-07-04T13:13:54;2.50;;;2.30;;
10902;SDS011;5504;47.312;11.060;2022-07-04T13:16:20;3.58;;;2.30;;
10902;SDS011;5504;47.312;11.060;2022-07-04T13:18:46;2.53;;;2.33;;
10902;SDS011;5504;47.312;11.060;2022-07-04T13:21:11;2.92;;;2.05;;
10902;SDS011;5504;47.312;11.060;2022-07-04T13:23:37;2.50;;;2.30;;
10902;SDS011;5504;47.312;11.060;2022-07-04T13:26:03;1.90;;;1.80;;
10902;SDS011;5504;47.312;11.060;2022-07-04T13:28:29;2.08;;;1.90;;
10902;SDS011;5504;47.312;11.060;2022-07-04T13:30:55;2.38;;;1.85;;
10902;SDS011;5504;47.312;11.060;2022-07-04T13:33:20;1.95;;;1.85;;
10902;SDS011;5504;47.312;11.060;2022-07-04T13:35:46;3.10;;;1.90;;
10902;SDS011;5504;47.312;11.060;2022-07-04T13:38:13;2.28;;;1.90;;
10902;SDS011;5504;47.312;11.060;2022-07-04T13:40:43;2.20;;;1.80;;
10902;SDS011;5504;47.312;11.060;2022-07-04T13:43:09;2.45;;;1.90;;
10902;SDS011;5504;47.312;11.060;2022-07-04T13:45:36;2.20;;;2.00;;
10902;SDS011;5504;47.312;11.060;2022-07-04T13:48:04;2.33;;;1.88;;
10902;SDS011;5504;47.312;11.060;2022-07-04T13:50:30;4.28;;;1.80;;
10902;SDS011;5504;47.312;11.060;2022-07-04T13:52:56;1.65;;;1.55;;
10902;SDS011;5504;47.312;11.060;2022-07-04T13:55:22;1.60;;;1.42;;
10902;SDS011;5504;47.312;11.060;2022-07-04T13:57:48;1.60;;;1.50;;
10902;SDS011;5504;47.312;11.060;2022-07-04T14:00:14;2.38;;;1.52;;
10902;SDS011;5504;47.312;11.060;2022-07-04T14:02:40;1.70;;;1.60;;
10902;SDS011;5504;47.312;11.060;2022-07-04T14:05:06;1.90;;;1.80;;
10902;SDS011;5504;47.312;11.060;2022-07-04T14:07:32;1.95;;;1.40;;
10902;SDS011;5504;47.312;11.060;2022-07-04T14:10:00;1.60;;;1.50;;
10902;SDS011;5504;47.312;11.060;2022-07-04T14:12:26;1.70;;;1.60;;
10902;SDS011;5504;47.312;11.060;2022-07-04T14:14:52;1.55;;;1.45;;
10902;SDS011;5504;47.312;11.060;2022-07-04T14:17:18;1.60;;;1.50;;
10902;SDS011;5504;47.312;11.060;2022-07-04T14:19:43;1.70;;;1.48;;
10902;SDS011;5504;47.312;11.060;2022-07-04T14:22:09;3.58;;;1.55;;
10902;SDS011;5504;47.312;11.060;2022-07-04T14:24:35;1.50;;;1.40;;
10902;SDS011;5504;47.312;11.060;2022-07-04T14:27:00;1.63;;;1.27;;
10902;SDS011;5504;47.312;11.060;2022-07-04T14:29:26;2.42;;;1.52;;
10902;SDS011;5504;47.312;11.060;2022-07-04T14:31:52;2.03;;;1.40;;
10902;SDS011;5504;47.312;11.060;2022-07-04T14:34:18;2.58;;;1.30;;
10902;SDS011;5504;47.312;11.060;2022-07-04T14:36:44;1.50;;;1.38;;
10902;SDS011;5504;47.312;11.060;2022-07-04T14:39:09;1.60;;;1.50;;
10902;SDS011;5504;47.312;11.060;2022-07-04T14:41:35;1.73;;;1.27;;
10902;SDS011;5504;47.312;11.060;2022-07-04T14:44:01;1.42;;;1.27;;
10902;SDS011;5504;47.312;11.060;2022-07-04T14:46:27;1.77;;;1.33;;
10902;SDS011;5504;47.312;11.060;2022-07-04T14:48:53;1.95;;;1.20;;
10902;SDS011;5504;47.312;11.060;2022-07-04T14:51:20;1.20;;;1.13;;
10902;SDS011;5504;47.312;11.060;2022-07-04T14:53:46;1.83;;;1.25;;
10902;SDS011;5504;47.312;11.060;2022-07-04T14:56:11;1.50;;;1.40;;
10902;SDS011;5504;47.312;11.060;2022-07-04T14:58:37;1.40;;;1.30;;
10902;SDS011;5504;47.312;11.060;2022-07-04T15:01:03;1.50;;;1.20;;
10902;SDS011;5504;47.312;11.060;2022-07-04T15:03:29;2.03;;;1.38;;
10902;SDS011;5504;47.312;11.060;2022-07-04T15:05:54;1.45;;;1.30;;
10902;SDS011;5504;47.312;11.060;2022-07-04T15:08:20;2.05;;;1.58;;
10902;SDS011;5504;47.312;11.060;2022-07-04T15:10:46;1.35;;;1.20;;
10902;SDS011;5504;47.312;11.060;2022-07-04T15:13:11;1.40;;;1.30;;
10902;SDS011;5504;47.312;11.060;2022-07-04T15:15:38;1.63;;;1.20;;
10902;SDS011;5504;47.312;11.060;2022-07-04T15:18:04;1.50;;;1.30;;
10902;SDS011;5504;47.312;11.060;2022-07-04T15:20:30;1.38;;;1.27;;
10902;SDS011;5504;47.312;11.060;2022-07-04T15:23:15;1.27;;;1.20;;
10902;SDS011;5504;47.312;11.060;2022-07-04T15:25:59;1.10;;;1.10;;
10902;SDS011;5504;47.312;11.060;2022-07-04T15:28:24;2.65;;;1.33;;
10902;SDS011;5504;47.312;11.060;2022-07-04T15:30:50;1.67;;;1.35;;